Foleyet, Canada
Current Conditions -  °F | °C
As of 9:00 PM on Monday 20 Oct 2014 (Local Time) from CYLD Reporting Station
Light Rain Light Rain  
Wind Chill: 30°   Ceiling: 500
Heat Index: 37°   Visibility: 15mi
Dew Point: 37°   Wind: 12mph
Humidity: 100%   Direction: 20°NNE
Pressure: 29.95"   Gusts: NA
Location:  48.25°N, 82.43°W
Report Text: CYLD 210100Z 02010KT 15SM -RA OVC005 03/03 A2995 RMK SC8 LASTOBS/NEXT 21 1000Z SLP160
Loading
Personal Weather Stations






























Interactive Weather Map
Tropical Storm Tracking
New forecast layout! Learn more

10-Day Weather Forecast

Advertisements
Track Severe Weather on mobile